Time;durP1;ratioP1;P1;durP2;ratioP2;P2;SDS_P1;SDS_P2;PMS_P1;PMS_P2;Temp;Humidity;BMP_temperature;BMP_pressure;BME280_temperature;BME280_humidity;BME280_pressure;Samples;Min_cycle;Max_cycle;Signal;HPM_P1;HPM_P2
2023/12/15 00:01:44;;;;;;;8.83;6.53;;;7.00;99.90;;;;;;5010020;28;20199;-70
2023/12/15 00:04:10;;;;;;;11.10;7.00;;;7.10;99.90;;;;;;5006906;28;20188;-68
2023/12/15 00:06:35;;;;;;;8.27;6.20;;;7.00;99.90;;;;;;5006578;28;20315;-71
2023/12/15 00:09:04;;;;;;;9.40;6.63;;;6.90;99.90;;;;;;5018561;28;20175;-70
2023/12/15 00:11:29;;;;;;;9.53;6.23;;;6.90;99.90;;;;;;5012966;28;20178;-70
2023/12/15 00:13:55;;;;;;;10.40;6.53;;;6.90;99.90;;;;;;5010155;28;20186;-67
2023/12/15 00:16:21;;;;;;;9.17;6.73;;;6.90;99.90;;;;;;5013246;28;20185;-71
2023/12/15 00:18:51;;;;;;;10.20;6.27;;;6.80;99.90;;;;;;5012722;28;20239;-70
2023/12/15 00:21:17;;;;;;;9.77;6.30;;;6.70;99.90;;;;;;5014742;28;20202;-70
2023/12/15 00:23:42;;;;;;;10.33;7.13;;;6.80;99.90;;;;;;5015066;28;20174;-69
2023/12/15 00:26:08;;;;;;;9.37;6.60;;;6.70;99.90;;;;;;5013232;28;20367;-69
2023/12/15 00:28:36;;;;;;;8.87;6.37;;;6.60;99.90;;;;;;5015012;28;20171;-68
2023/12/15 00:31:01;;;;;;;9.47;6.80;;;6.60;99.90;;;;;;4999605;28;20179;-69
2023/12/15 00:33:27;;;;;;;9.60;6.27;;;6.60;99.90;;;;;;5011533;28;20298;-71
2023/12/15 00:35:52;;;;;;;8.97;6.97;;;6.50;99.90;;;;;;5015085;28;20178;-70
2023/12/15 00:38:18;;;;;;;9.37;6.60;;;6.60;99.90;;;;;;5013969;28;20221;-73
2023/12/15 00:40:44;;;;;;;9.73;6.70;;;6.50;99.90;;;;;;5011031;28;20531;-72
2023/12/15 00:43:13;;;;;;;9.53;7.03;;;6.50;99.90;;;;;;5014638;28;20262;-71
2023/12/15 00:45:41;;;;;;;10.90;7.30;;;6.50;99.90;;;;;;5011991;28;20265;-71
2023/12/15 00:48:07;;;;;;;10.33;7.13;;;6.50;99.90;;;;;;5013483;28;20211;-71
2023/12/15 00:50:33;;;;;;;9.30;6.50;;;6.50;99.90;;;;;;5013666;28;20186;-68
2023/12/15 00:52:58;;;;;;;10.20;6.80;;;6.50;99.90;;;;;;5011890;28;20174;-70
2023/12/15 00:55:29;;;;;;;10.03;6.70;;;6.50;99.90;;;;;;5000385;28;20261;-69
2023/12/15 00:57:59;;;;;;;10.03;6.00;;;6.60;99.90;;;;;;5013789;28;20229;-71
2023/12/15 01:00:27;;;;;;;9.47;6.43;;;6.50;99.90;;;;;;5010619;28;20261;-71
2023/12/15 01:02:54;;;;;;;9.80;6.90;;;6.70;99.90;;;;;;5012276;28;20242;-67
2023/12/15 01:05:20;;;;;;;10.77;6.97;;;6.60;99.90;;;;;;5002593;28;20179;-69
2023/12/15 01:07:50;;;;;;;9.93;6.93;;;6.70;99.90;;;;;;5000376;28;20179;-71
2023/12/15 01:10:16;;;;;;;8.47;6.17;;;6.70;99.90;;;;;;5013492;28;20206;-72
2023/12/15 01:12:41;;;;;;;10.13;7.13;;;6.60;99.90;;;;;;5013444;28;20476;-71
2023/12/15 01:15:07;;;;;;;9.70;7.03;;;6.70;99.90;;;;;;5012891;28;20257;-69
2023/12/15 01:17:35;;;;;;;10.80;7.53;;;6.70;99.90;;;;;;5005083;28;20229;-68
2023/12/15 01:20:03;;;;;;;9.43;7.17;;;6.80;99.90;;;;;;5011187;28;20193;-70
2023/12/15 01:22:29;;;;;;;9.70;6.73;;;6.80;99.90;;;;;;5011101;28;20206;-71
2023/12/15 01:24:54;;;;;;;8.63;6.47;;;6.80;99.90;;;;;;5013795;28;20293;-71
2023/12/15 01:27:20;;;;;;;9.80;6.80;;;6.80;99.90;;;;;;5013727;28;20179;-71
2023/12/15 01:29:47;;;;;;;10.53;6.60;;;6.90;99.90;;;;;;5009167;28;20178;-70
2023/12/15 01:32:15;;;;;;;10.00;7.03;;;6.90;99.90;;;;;;5013544;28;20187;-71
2023/12/15 01:34:41;;;;;;;10.73;7.37;;;6.90;99.90;;;;;;5013224;28;20187;-69
2023/12/15 01:37:07;;;;;;;9.30;6.77;;;6.90;99.90;;;;;;5003750;28;20274;-67
2023/12/15 01:39:35;;;;;;;9.70;6.83;;;6.90;99.90;;;;;;5013702;28;20203;-71
2023/12/15 01:42:03;;;;;;;8.97;6.40;;;6.90;99.90;;;;;;4997218;28;20213;-67
2023/12/15 01:44:28;;;;;;;9.80;6.70;;;6.90;99.90;;;;;;4996482;28;20171;-70
2023/12/15 01:46:54;;;;;;;9.43;6.40;;;6.90;99.90;;;;;;5013181;28;20171;-70
2023/12/15 01:49:20;;;;;;;11.30;7.40;;;6.90;99.90;;;;;;5011826;28;20178;-68
2023/12/15 01:51:45;;;;;;;9.20;6.30;;;6.90;99.90;;;;;;5013849;28;20182;-67
2023/12/15 01:54:13;;;;;;;9.80;6.77;;;6.90;99.90;;;;;;5008495;28;20178;-70
2023/12/15 01:56:41;;;;;;;8.70;6.57;;;7.00;99.90;;;;;;5010743;28;20187;-68
2023/12/15 01:59:09;;;;;;;8.70;6.43;;;7.00;99.90;;;;;;5009797;28;20195;-67
2023/12/15 02:01:34;;;;;;;9.40;6.87;;;7.00;99.90;;;;;;5009122;28;20203;-70
2023/12/15 02:04:00;;;;;;;9.20;6.47;;;7.00;99.90;;;;;;5013693;28;20193;-70
2023/12/15 02:06:30;;;;;;;9.03;6.53;;;7.00;99.90;;;;;;5009864;28;20199;-71
2023/12/15 02:08:58;;;;;;;10.10;6.83;;;7.00;99.90;;;;;;5007973;28;20178;-67
2023/12/15 02:11:24;;;;;;;9.47;6.67;;;7.00;99.90;;;;;;5007704;28;20183;-72
2023/12/15 02:13:52;;;;;;;9.27;6.50;;;7.00;99.90;;;;;;5005457;28;20215;-72
2023/12/15 02:16:17;;;;;;;9.30;6.53;;;7.00;99.90;;;;;;5012385;28;20182;-71
2023/12/15 02:18:45;;;;;;;12.67;6.57;;;7.00;99.90;;;;;;5013459;28;20204;-71
2023/12/15 02:21:11;;;;;;;8.87;6.10;;;7.10;99.90;;;;;;5012063;28;20210;-70
2023/12/15 02:23:37;;;;;;;9.47;6.30;;;7.20;99.90;;;;;;5011369;28;20180;-71
2023/12/15 02:26:08;;;;;;;8.43;6.30;;;7.10;99.90;;;;;;5013151;28;20202;-72
2023/12/15 02:28:33;;;;;;;8.90;5.77;;;7.10;99.90;;;;;;5011791;28;20195;-71
2023/12/15 02:30:59;;;;;;;9.80;6.17;;;7.10;99.90;;;;;;5003084;28;20247;-71
2023/12/15 02:33:24;;;;;;;8.93;6.03;;;7.20;99.90;;;;;;5007443;28;20199;-71
2023/12/15 02:35:50;;;;;;;8.47;6.20;;;7.20;99.90;;;;;;5012520;28;20194;-69
2023/12/15 02:38:18;;;;;;;8.03;6.27;;;7.20;99.90;;;;;;5011492;28;20213;-71
2023/12/15 02:40:47;;;;;;;9.73;6.20;;;7.20;99.90;;;;;;5005407;28;20191;-71
2023/12/15 02:43:13;;;;;;;8.70;6.07;;;7.30;99.90;;;;;;5012310;28;20182;-71
2023/12/15 02:45:38;;;;;;;8.50;5.87;;;7.30;99.90;;;;;;4996885;28;20175;-68
2023/12/15 02:48:06;;;;;;;8.23;5.80;;;7.30;99.90;;;;;;5010102;28;20182;-70
2023/12/15 02:50:32;;;;;;;7.83;5.70;;;7.30;99.90;;;;;;5013580;28;20209;-71
2023/12/15 02:52:58;;;;;;;8.20;5.73;;;7.40;99.90;;;;;;5016249;28;20182;-71
2023/12/15 02:55:23;;;;;;;8.00;5.63;;;7.30;99.90;;;;;;5013633;28;20199;-72
2023/12/15 02:57:53;;;;;;;7.63;5.87;;;7.40;99.90;;;;;;5002649;28;20231;-70
2023/12/15 03:00:21;;;;;;;8.13;5.57;;;7.30;99.90;;;;;;5008430;28;20190;-71
2023/12/15 03:02:52;;;;;;;8.20;5.83;;;7.50;99.90;;;;;;5016305;28;20234;-71
2023/12/15 03:05:17;;;;;;;8.30;6.10;;;7.40;99.90;;;;;;5009855;28;20266;-70
2023/12/15 03:07:43;;;;;;;8.40;5.63;;;7.40;99.90;;;;;;5014135;28;20228;-71
2023/12/15 03:10:08;;;;;;;9.23;5.60;;;7.40;99.90;;;;;;5015717;28;20208;-71
2023/12/15 03:12:36;;;;;;;7.83;5.60;;;7.40;99.90;;;;;;5016629;28;20194;-70
2023/12/15 03:15:04;;;;;;;7.53;5.80;;;7.40;99.90;;;;;;5008898;28;20195;-71
2023/12/15 03:17:32;;;;;;;7.73;5.67;;;7.40;99.90;;;;;;5009533;28;20202;-71
2023/12/15 03:19:57;;;;;;;8.53;6.03;;;7.40;99.90;;;;;;5004563;28;20202;-70
2023/12/15 03:22:25;;;;;;;7.43;5.60;;;7.50;99.90;;;;;;5005566;28;20256;-63
2023/12/15 03:24:51;;;;;;;8.97;5.77;;;7.50;99.90;;;;;;5015903;28;20281;-62
2023/12/15 03:27:16;;;;;;;8.77;5.70;;;7.50;99.90;;;;;;5016109;28;20206;-63
2023/12/15 03:29:42;;;;;;;8.40;6.07;;;7.50;99.90;;;;;;5014546;28;20291;-63
2023/12/15 03:32:07;;;;;;;7.63;5.80;;;7.50;99.90;;;;;;5012417;28;20186;-63
2023/12/15 03:34:38;;;;;;;7.50;5.67;;;7.50;99.90;;;;;;5014759;28;20214;-63
2023/12/15 03:37:04;;;;;;;9.50;6.53;;;7.50;99.90;;;;;;5005712;28;20178;-63
2023/12/15 03:39:34;;;;;;;8.90;6.30;;;7.50;99.90;;;;;;5015654;28;20201;-62
2023/12/15 03:42:06;;;;;;;7.73;6.17;;;7.50;99.90;;;;;;5015879;28;20363;-63
2023/12/15 03:44:32;;;;;;;7.83;5.53;;;7.50;99.90;;;;;;5004527;28;20266;-62
2023/12/15 03:46:58;;;;;;;7.80;5.77;;;7.50;99.90;;;;;;5014626;28;20194;-63
2023/12/15 03:49:23;;;;;;;8.07;6.10;;;7.50;99.90;;;;;;5018854;28;20174;-63
2023/12/15 03:51:51;;;;;;;9.47;6.07;;;7.60;99.90;;;;;;4997134;28;20191;-63
2023/12/15 03:54:19;;;;;;;8.07;5.90;;;7.70;99.90;;;;;;5016828;28;20245;-63
2023/12/15 03:56:45;;;;;;;10.43;6.00;;;7.60;99.90;;;;;;5014774;28;20183;-64
2023/12/15 03:59:10;;;;;;;7.77;5.73;;;7.60;99.90;;;;;;5015284;28;20190;-65
2023/12/15 04:01:38;;;;;;;7.97;5.77;;;7.60;99.90;;;;;;5014854;28;20203;-65
2023/12/15 04:04:06;;;;;;;7.87;6.03;;;7.60;99.90;;;;;;5015347;28;20195;-62
2023/12/15 04:06:31;;;;;;;7.83;5.60;;;7.50;99.90;;;;;;5012296;28;20190;-64
2023/12/15 04:08:57;;;;;;;7.80;5.93;;;7.60;99.90;;;;;;5008902;28;20183;-63
2023/12/15 04:11:23;;;;;;;7.83;6.07;;;7.60;99.90;;;;;;5007404;28;20206;-63
2023/12/15 04:13:48;;;;;;;8.87;6.00;;;7.60;99.90;;;;;;5014974;28;20179;-63
2023/12/15 04:16:14;;;;;;;8.80;6.30;;;7.60;99.90;;;;;;5015702;28;20190;-63
2023/12/15 04:18:40;;;;;;;9.40;6.43;;;7.60;99.90;;;;;;5013228;28;20208;-63
2023/12/15 04:21:06;;;;;;;8.00;5.90;;;7.60;99.90;;;;;;5014984;28;20210;-63
2023/12/15 04:23:32;;;;;;;8.23;6.33;;;7.60;99.90;;;;;;5005896;28;20182;-63
2023/12/15 04:26:00;;;;;;;8.10;5.93;;;7.60;99.90;;;;;;5015215;28;20206;-63
2023/12/15 04:28:27;;;;;;;9.23;5.40;;;7.60;99.90;;;;;;5015120;28;20202;-63
2023/12/15 04:30:55;;;;;;;7.87;6.17;;;7.60;99.90;;;;;;5015122;28;20189;-63
2023/12/15 04:33:21;;;;;;;8.33;5.47;;;7.60;99.90;;;;;;5014850;28;20203;-63
2023/12/15 04:35:47;;;;;;;7.70;5.83;;;7.60;99.90;;;;;;5015204;28;20246;-64
2023/12/15 04:38:12;;;;;;;8.33;6.67;;;7.60;99.90;;;;;;5014908;28;20237;-63
2023/12/15 04:40:40;;;;;;;8.17;5.83;;;7.60;99.90;;;;;;5008152;28;20183;-63
2023/12/15 04:43:06;;;;;;;10.13;6.37;;;7.60;99.90;;;;;;5001468;28;20199;-62
2023/12/15 04:45:34;;;;;;;8.50;6.57;;;7.60;99.90;;;;;;5014686;28;20177;-64
2023/12/15 04:48:02;;;;;;;7.27;5.57;;;7.60;99.90;;;;;;5014652;28;20174;-63
2023/12/15 04:50:30;;;;;;;9.33;6.17;;;7.60;99.90;;;;;;5006753;28;20315;-64
2023/12/15 04:52:56;;;;;;;6.83;5.77;;;7.70;99.90;;;;;;5005290;28;20424;-63
2023/12/15 04:55:21;;;;;;;6.97;5.17;;;7.60;99.90;;;;;;5004240;28;20271;-63
2023/12/15 04:57:47;;;;;;;7.17;5.40;;;7.70;99.90;;;;;;5009490;28;20550;-63
2023/12/15 05:00:15;;;;;;;7.00;5.50;;;7.60;99.90;;;;;;5007377;28;20203;-63
2023/12/15 05:02:41;;;;;;;8.50;5.90;;;7.70;99.90;;;;;;5022763;28;20210;-64
2023/12/15 05:05:07;;;;;;;8.07;5.77;;;7.70;99.90;;;;;;5015018;28;20265;-64
2023/12/15 05:07:33;;;;;;;7.87;5.37;;;7.70;99.90;;;;;;5014260;28;20198;-63
2023/12/15 05:09:59;;;;;;;7.33;5.83;;;7.70;99.90;;;;;;5014676;28;20171;-63
2023/12/15 05:12:24;;;;;;;7.00;5.53;;;7.70;99.90;;;;;;5014254;28;20178;-63
2023/12/15 05:14:52;;;;;;;7.30;5.63;;;7.80;99.90;;;;;;5014893;28;20264;-64
2023/12/15 05:17:18;;;;;;;7.40;5.40;;;7.80;99.90;;;;;;5014832;28;20182;-63
2023/12/15 05:19:43;;;;;;;7.53;5.60;;;7.80;99.90;;;;;;5014978;28;20228;-63
2023/12/15 05:22:09;;;;;;;7.90;5.50;;;7.80;99.90;;;;;;5014974;28;20248;-63
2023/12/15 05:24:34;;;;;;;7.13;5.40;;;7.90;99.90;;;;;;5014366;28;20229;-63
2023/12/15 05:27:00;;;;;;;8.77;5.93;;;7.90;99.90;;;;;;5014619;28;20215;-64
2023/12/15 05:29:26;;;;;;;7.80;5.97;;;7.90;99.90;;;;;;5014763;28;20236;-64
2023/12/15 05:31:54;;;;;;;7.17;5.50;;;7.90;99.90;;;;;;5010833;28;20183;-63
2023/12/15 05:34:20;;;;;;;8.37;6.47;;;7.90;99.90;;;;;;5014652;28;20240;-64
2023/12/15 05:36:45;;;;;;;8.07;5.93;;;7.90;99.90;;;;;;5014652;28;20175;-65
2023/12/15 05:39:14;;;;;;;9.03;6.23;;;7.90;99.90;;;;;;5010316;28;20213;-64
2023/12/15 05:41:46;;;;;;;9.07;6.43;;;7.90;99.90;;;;;;5008788;28;20195;-64
2023/12/15 05:44:13;;;;;;;8.40;6.40;;;7.90;99.90;;;;;;5014037;28;20235;-64
2023/12/15 05:46:45;;;;;;;7.60;5.93;;;7.90;99.90;;;;;;5014501;28;20202;-65
2023/12/15 05:49:11;;;;;;;7.27;5.50;;;7.90;99.90;;;;;;5014549;28;20170;-66
2023/12/15 05:51:45;;;;;;;8.03;6.07;;;8.00;99.90;;;;;;5014240;28;20175;-66
2023/12/15 05:54:11;;;;;;;8.37;6.23;;;7.90;99.90;;;;;;5014065;28;20198;-65
2023/12/15 05:56:39;;;;;;;8.77;5.83;;;7.90;99.90;;;;;;5008839;28;20178;-65
2023/12/15 05:59:04;;;;;;;8.63;5.77;;;7.80;99.90;;;;;;5008702;28;20179;-64
2023/12/15 06:01:30;;;;;;;9.03;6.27;;;7.80;99.90;;;;;;4994120;28;20206;-65
2023/12/15 06:03:56;;;;;;;7.37;5.47;;;7.80;99.90;;;;;;5008288;28;20175;-65
2023/12/15 06:06:22;;;;;;;8.03;6.27;;;7.80;99.90;;;;;;5013376;28;20194;-64
2023/12/15 06:08:50;;;;;;;8.87;5.93;;;7.80;99.90;;;;;;5013694;28;20175;-65
2023/12/15 06:11:16;;;;;;;8.70;6.23;;;7.80;99.90;;;;;;5013715;28;20412;-66
2023/12/15 06:13:45;;;;;;;8.73;6.20;;;7.80;99.90;;;;;;5013655;28;20213;-65
2023/12/15 06:16:18;;;;;;;7.83;6.30;;;7.70;99.90;;;;;;5013814;28;20264;-65
2023/12/15 06:18:46;;;;;;;9.83;6.00;;;7.70;99.90;;;;;;4994076;28;20194;-65
2023/12/15 06:21:26;;;;;;;8.83;5.93;;;7.70;99.90;;;;;;4999553;28;20212;-65
2023/12/15 06:23:52;;;;;;;8.97;6.30;;;7.70;99.90;;;;;;5022474;28;20245;-65
2023/12/15 06:26:25;;;;;;;8.40;5.90;;;7.70;99.90;;;;;;5017503;28;20194;-65
2023/12/15 06:28:51;;;;;;;9.17;6.07;;;7.60;99.90;;;;;;5017436;28;20253;-65
2023/12/15 06:31:17;;;;;;;8.27;5.83;;;7.70;99.90;;;;;;5017444;28;20246;-64
2023/12/15 06:33:43;;;;;;;9.97;6.47;;;7.60;99.90;;;;;;5017164;28;20209;-64
2023/12/15 06:36:09;;;;;;;9.47;6.17;;;7.60;99.90;;;;;;5017302;28;20185;-65
2023/12/15 06:38:42;;;;;;;9.77;6.57;;;7.60;99.90;;;;;;4997311;28;20310;-64
2023/12/15 06:41:09;;;;;;;9.27;6.60;;;7.60;99.90;;;;;;5014427;28;20189;-64
2023/12/15 06:43:38;;;;;;;7.83;5.77;;;7.60;99.90;;;;;;5016728;28;20189;-64
2023/12/15 06:46:04;;;;;;;9.50;6.80;;;7.60;99.90;;;;;;5016756;28;20265;-64
2023/12/15 06:48:32;;;;;;;8.73;6.33;;;7.70;99.90;;;;;;5016812;28;20191;-65
2023/12/15 06:51:00;;;;;;;8.83;6.00;;;7.70;99.90;;;;;;5016705;28;20318;-64
2023/12/15 06:53:28;;;;;;;8.97;6.27;;;7.70;99.90;;;;;;5016777;28;20171;-65
2023/12/15 06:55:54;;;;;;;8.37;6.40;;;7.70;99.90;;;;;;5016770;28;20197;-66
2023/12/15 06:58:20;;;;;;;8.67;6.73;;;7.70;99.90;;;;;;5016565;28;20237;-65
2023/12/15 07:00:48;;;;;;;8.20;6.13;;;7.70;99.90;;;;;;5016627;28;20174;-66
2023/12/15 07:03:13;;;;;;;8.93;6.43;;;7.70;99.90;;;;;;5010967;28;20214;-64
2023/12/15 07:05:39;;;;;;;9.10;6.57;;;7.80;99.90;;;;;;5016579;28;20182;-64
2023/12/15 07:08:04;;;;;;;9.90;6.77;;;7.70;99.90;;;;;;5016593;28;20205;-66
2023/12/15 07:10:33;;;;;;;9.83;5.97;;;7.80;99.90;;;;;;5016302;28;20201;-65
2023/12/15 07:12:58;;;;;;;8.50;5.93;;;7.80;99.90;;;;;;5016514;28;20185;-65
2023/12/15 07:15:27;;;;;;;8.93;6.10;;;7.80;99.90;;;;;;5015960;28;20202;-65
2023/12/15 07:17:53;;;;;;;8.77;5.93;;;7.80;99.90;;;;;;5015906;28;20208;-65
2023/12/15 07:20:20;;;;;;;7.27;5.70;;;7.80;99.90;;;;;;5003498;28;20214;-65
2023/12/15 07:22:45;;;;;;;8.00;5.67;;;7.80;99.90;;;;;;5016220;28;20240;-65
2023/12/15 07:25:11;;;;;;;9.47;5.87;;;7.90;99.90;;;;;;5016426;28;20187;-65
2023/12/15 07:27:39;;;;;;;10.40;6.00;;;7.90;99.90;;;;;;5016306;28;20174;-65
2023/12/15 07:30:07;;;;;;;7.27;5.53;;;7.90;99.90;;;;;;5014367;28;20210;-65
2023/12/15 07:32:33;;;;;;;7.37;5.87;;;7.90;99.90;;;;;;5006299;28;20190;-64
2023/12/15 07:34:59;;;;;;;9.33;6.03;;;7.90;99.90;;;;;;5015091;28;20294;-65
2023/12/15 07:37:27;;;;;;;9.23;6.07;;;7.90;99.90;;;;;;5016225;28;20209;-66
2023/12/15 07:39:55;;;;;;;8.87;6.40;;;8.00;99.90;;;;;;5012191;28;20207;-65
2023/12/15 07:42:26;;;;;;;9.20;6.23;;;8.00;99.90;;;;;;5004162;28;20194;-65
2023/12/15 07:44:51;;;;;;;9.07;6.20;;;8.00;99.90;;;;;;5010589;28;20274;-65
2023/12/15 07:47:19;;;;;;;7.63;6.03;;;8.00;99.90;;;;;;5015279;28;20348;-64
2023/12/15 07:49:48;;;;;;;7.90;5.80;;;8.10;99.90;;;;;;5015832;28;20170;-64
2023/12/15 07:52:14;;;;;;;8.87;6.07;;;8.10;99.90;;;;;;5015782;28;20171;-65
2023/12/15 07:54:42;;;;;;;8.00;6.13;;;8.10;99.90;;;;;;5015679;28;20225;-64
2023/12/15 07:57:10;;;;;;;9.10;6.17;;;8.20;99.90;;;;;;5015691;28;20189;-64
2023/12/15 07:59:36;;;;;;;7.47;5.60;;;8.20;99.90;;;;;;5015084;28;20174;-64
2023/12/15 08:02:06;;;;;;;8.03;5.53;;;8.20;99.90;;;;;;5015453;28;20198;-64
2023/12/15 08:04:34;;;;;;;8.33;5.67;;;8.20;99.90;;;;;;5015147;28;20204;-65
2023/12/15 08:07:00;;;;;;;7.73;5.70;;;8.30;99.90;;;;;;5015759;28;20194;-64
2023/12/15 08:09:30;;;;;;;8.70;6.07;;;8.20;99.90;;;;;;5015410;28;20235;-65
2023/12/15 08:11:56;;;;;;;8.63;6.10;;;8.20;99.90;;;;;;5015780;28;20163;-64
2023/12/15 08:14:22;;;;;;;8.87;5.87;;;8.30;99.90;;;;;;5015552;28;20260;-65
2023/12/15 08:16:48;;;;;;;7.63;5.43;;;8.20;99.90;;;;;;5015531;28;20175;-64
2023/12/15 08:19:16;;;;;;;9.10;6.37;;;8.30;99.90;;;;;;5015096;28;20226;-64
2023/12/15 08:21:42;;;;;;;8.53;5.90;;;8.20;99.90;;;;;;5015238;28;20292;-65
2023/12/15 08:24:08;;;;;;;8.77;6.00;;;8.30;99.90;;;;;;5015257;28;20203;-64
2023/12/15 08:26:36;;;;;;;8.33;5.87;;;8.30;99.90;;;;;;5014854;28;20202;-65
2023/12/15 08:29:02;;;;;;;6.60;5.20;;;8.30;99.90;;;;;;5012245;28;20237;-65
2023/12/15 08:31:27;;;;;;;7.68;5.82;;;8.30;99.90;;;;;;5015004;28;20369;-65
2023/12/15 08:33:55;;;;;;;9.27;5.77;;;8.40;99.90;;;;;;5011521;28;20225;-65
2023/12/15 08:36:21;;;;;;;8.10;5.97;;;8.30;99.90;;;;;;5010633;28;20332;-65
2023/12/15 08:38:49;;;;;;;7.38;5.85;;;8.40;99.90;;;;;;5014981;28;20213;-64
2023/12/15 08:41:15;;;;;;;9.20;5.95;;;8.40;99.90;;;;;;5014715;28;20214;-65
2023/12/15 08:43:41;;;;;;;7.43;5.68;;;8.50;99.90;;;;;;5014946;28;20174;-65
2023/12/15 08:46:07;;;;;;;8.43;5.60;;;8.50;99.90;;;;;;5014945;28;20186;-65
2023/12/15 08:48:32;;;;;;;7.20;5.43;;;8.50;99.90;;;;;;5013931;28;20175;-65
2023/12/15 08:50:58;;;;;;;7.60;5.20;;;8.50;99.90;;;;;;5014476;28;20222;-65
2023/12/15 08:53:24;;;;;;;6.47;5.05;;;8.60;99.90;;;;;;5014722;28;20170;-65
2023/12/15 08:55:49;;;;;;;6.78;4.97;;;8.60;99.90;;;;;;5014396;28;20185;-65
2023/12/15 08:58:15;;;;;;;7.70;5.05;;;8.60;99.90;;;;;;5014911;28;20202;-65
2023/12/15 09:00:42;;;;;;;6.63;5.15;;;8.60;99.90;;;;;;5013809;28;20201;-65
2023/12/15 09:03:08;;;;;;;6.72;5.38;;;8.60;99.90;;;;;;5014256;28;20210;-65
2023/12/15 09:05:38;;;;;;;6.93;4.97;;;8.60;99.90;;;;;;5014262;28;20185;-65
2023/12/15 09:08:04;;;;;;;6.75;4.80;;;8.70;99.90;;;;;;5014660;28;20183;-65
2023/12/15 09:10:33;;;;;;;8.23;4.65;;;8.70;99.90;;;;;;5016096;28;20195;-64
2023/12/15 09:13:02;;;;;;;6.82;4.97;;;8.80;99.90;;;;;;5014050;28;20186;-67
2023/12/15 09:15:30;;;;;;;5.53;4.82;;;8.80;99.90;;;;;;5014281;28;20210;-65
2023/12/15 09:17:58;;;;;;;6.25;4.78;;;8.80;99.90;;;;;;5014236;28;20329;-65
2023/12/15 09:20:24;;;;;;;7.22;4.80;;;8.80;99.90;;;;;;5013812;28;20177;-64
2023/12/15 09:22:54;;;;;;;6.93;5.40;;;8.80;99.90;;;;;;5014152;28;20297;-65
2023/12/15 09:25:22;;;;;;;6.82;4.93;;;8.80;99.90;;;;;;5002215;28;20178;-65
2023/12/15 09:27:47;;;;;;;6.53;5.30;;;9.00;99.90;;;;;;5013908;28;20185;-65
2023/12/15 09:30:13;;;;;;;7.53;5.15;;;9.00;99.90;;;;;;5014043;28;20171;-64
2023/12/15 09:32:41;;;;;;;6.25;4.95;;;9.00;99.90;;;;;;5013997;28;20188;-63
2023/12/15 09:35:07;;;;;;;6.55;4.65;;;9.10;99.90;;;;;;5013644;28;20202;-65
2023/12/15 09:37:33;;;;;;;5.57;4.50;;;9.20;99.90;;;;;;5014091;28;20171;-64
2023/12/15 09:40:04;;;;;;;6.00;4.35;;;9.10;99.90;;;;;;5013905;28;20175;-64
2023/12/15 09:42:30;;;;;;;6.30;4.68;;;9.20;99.90;;;;;;5013674;28;20241;-63
2023/12/15 09:44:57;;;;;;;8.18;5.10;;;9.20;99.90;;;;;;5005951;28;20179;-65
2023/12/15 09:47:24;;;;;;;9.30;6.40;;;9.20;99.90;;;;;;5013657;28;20210;-64
2023/12/15 09:49:52;;;;;;;8.85;6.90;;;9.30;99.90;;;;;;5013925;28;20190;-64
2023/12/15 09:52:20;;;;;;;8.43;5.97;;;9.30;99.90;;;;;;5013980;28;20196;-65
2023/12/15 09:54:50;;;;;;;8.77;5.53;;;9.40;99.90;;;;;;5006819;28;20203;-64
2023/12/15 09:57:19;;;;;;;7.03;5.30;;;9.40;99.90;;;;;;4998589;28;20179;-64
2023/12/15 09:59:47;;;;;;;7.35;5.22;;;9.50;99.90;;;;;;5016697;28;20210;-64
2023/12/15 10:02:13;;;;;;;7.80;5.63;;;9.40;99.90;;;;;;5017991;28;20198;-64
2023/12/15 10:04:38;;;;;;;6.53;5.38;;;9.60;99.90;;;;;;5008710;28;20208;-64
2023/12/15 10:07:04;;;;;;;6.45;5.50;;;9.50;99.90;;;;;;5017855;28;20258;-64
2023/12/15 10:09:32;;;;;;;7.20;5.53;;;9.50;99.90;;;;;;5017786;28;20170;-64
2023/12/15 10:11:59;;;;;;;6.75;5.70;;;9.60;99.90;;;;;;5014216;28;20257;-65
2023/12/15 10:14:24;;;;;;;7.40;5.55;;;9.60;99.90;;;;;;4997841;28;20179;-65
2023/12/15 10:16:50;;;;;;;7.50;5.10;;;9.60;99.90;;;;;;5016100;28;20265;-64
2023/12/15 10:19:17;;;;;;;6.32;4.95;;;9.60;99.90;;;;;;5017465;28;20238;-65
2023/12/15 10:21:43;;;;;;;6.50;5.20;;;9.60;99.90;;;;;;5017346;28;20278;-64
2023/12/15 10:24:18;;;;;;;5.97;4.95;;;9.70;99.90;;;;;;5017352;28;20486;-64
2023/12/15 10:26:47;;;;;;;7.25;4.78;;;9.70;99.90;;;;;;5017280;28;20198;-65
2023/12/15 10:29:15;;;;;;;6.13;4.88;;;9.80;99.90;;;;;;5016997;28;20245;-64
2023/12/15 10:31:41;;;;;;;8.55;5.40;;;9.80;99.90;;;;;;5017224;28;20198;-65
2023/12/15 10:34:07;;;;;;;6.47;4.60;;;9.80;99.90;;;;;;5009753;28;20175;-65
2023/12/15 10:36:35;;;;;;;5.85;4.60;;;9.80;99.90;;;;;;5017359;28;20256;-64
2023/12/15 10:39:02;;;;;;;6.25;4.72;;;9.90;99.90;;;;;;5012362;28;20190;-64
2023/12/15 10:41:31;;;;;;;8.18;5.03;;;9.90;99.90;;;;;;4997736;28;20234;-64
2023/12/15 10:44:00;;;;;;;7.10;5.38;;;10.00;99.90;;;;;;4999463;28;20191;-65
2023/12/15 10:46:27;;;;;;;7.93;6.18;;;10.10;99.90;;;;;;5007675;28;20399;-65
2023/12/15 10:48:58;;;;;;;8.30;6.45;;;10.20;99.90;;;;;;5004834;28;20168;-64
2023/12/15 10:51:25;;;;;;;7.60;6.22;;;10.20;99.90;;;;;;5016894;28;20248;-65
2023/12/15 10:53:53;;;;;;;7.70;5.30;;;10.20;99.90;;;;;;5016552;28;20262;-64
2023/12/15 10:56:22;;;;;;;7.00;5.38;;;10.30;99.90;;;;;;5016822;28;20266;-64
2023/12/15 10:58:49;;;;;;;7.03;5.55;;;10.20;99.90;;;;;;5016640;28;20178;-64
2023/12/15 11:01:19;;;;;;;7.13;5.47;;;10.30;99.90;;;;;;5016589;28;20321;-65
2023/12/15 11:03:44;;;;;;;6.68;5.22;;;10.30;99.90;;;;;;5016372;28;21597;-64
2023/12/15 11:06:13;;;;;;;6.90;5.15;;;10.30;99.90;;;;;;5017021;28;20189;-65
2023/12/15 11:08:39;;;;;;;7.45;5.40;;;10.30;99.90;;;;;;5016634;28;20178;-65
2023/12/15 11:11:08;;;;;;;7.43;5.25;;;10.30;99.90;;;;;;5008767;28;20175;-65
2023/12/15 11:14:04;;;;;;;7.85;5.78;;;10.30;99.90;;;;;;5023112;28;20175;-65
2023/12/15 11:16:39;;;;;;;8.60;5.53;;;10.40;99.90;;;;;;5015919;28;20218;-65
2023/12/15 11:19:05;;;;;;;7.40;5.45;;;10.40;99.90;;;;;;5016287;28;20216;-65
2023/12/15 11:21:30;;;;;;;9.15;5.88;;;10.40;99.90;;;;;;5016156;28;20202;-65
2023/12/15 11:24:02;;;;;;;7.63;5.90;;;10.40;99.90;;;;;;5016365;28;20178;-65
2023/12/15 11:26:34;;;;;;;8.43;5.63;;;10.40;99.90;;;;;;5011190;28;20228;-64
2023/12/15 11:29:06;;;;;;;7.28;6.03;;;10.50;99.90;;;;;;5007210;28;20278;-65
2023/12/15 11:31:35;;;;;;;7.57;5.80;;;10.50;99.90;;;;;;5016432;28;20202;-71
2023/12/15 11:34:04;;;;;;;7.28;5.72;;;10.50;99.90;;;;;;5015804;28;20329;-70
2023/12/15 11:36:39;;;;;;;7.28;5.93;;;10.50;99.90;;;;;;5015905;28;20175;-69
2023/12/15 11:39:11;;;;;;;8.68;6.10;;;10.50;99.90;;;;;;5012929;28;20237;-69
2023/12/15 11:41:41;;;;;;;7.00;5.55;;;10.50;99.90;;;;;;5015618;28;20301;-71
2023/12/15 11:44:07;;;;;;;7.15;5.57;;;10.50;99.90;;;;;;5015998;28;20264;-72
2023/12/15 11:46:33;;;;;;;8.05;6.15;;;10.50;99.90;;;;;;5015853;28;20214;-71
2023/12/15 11:49:01;;;;;;;8.38;6.07;;;10.60;99.90;;;;;;5030907;28;20197;-69
2023/12/15 11:51:30;;;;;;;8.43;6.00;;;10.60;99.90;;;;;;5015673;28;20294;-71
2023/12/15 11:54:00;;;;;;;9.48;6.00;;;10.60;99.90;;;;;;5007569;28;20346;-71
2023/12/15 11:56:27;;;;;;;8.88;6.25;;;10.60;99.90;;;;;;5015538;28;20175;-71
2023/12/15 11:58:53;;;;;;;8.80;6.10;;;10.60;99.90;;;;;;5015502;28;20260;-71
2023/12/15 12:01:18;;;;;;;9.23;6.40;;;10.70;99.90;;;;;;5015365;28;20202;-71
2023/12/15 12:03:44;;;;;;;8.48;6.20;;;10.70;99.90;;;;;;5015401;28;20189;-71
2023/12/15 12:06:10;;;;;;;8.82;6.10;;;10.70;99.90;;;;;;5015415;28;20215;-73
2023/12/15 12:08:36;;;;;;;8.07;5.82;;;10.70;99.90;;;;;;5014909;28;20461;-71
2023/12/15 12:11:04;;;;;;;8.70;6.22;;;10.70;99.90;;;;;;5005398;28;20203;-70
2023/12/15 12:13:32;;;;;;;8.73;6.72;;;10.70;99.90;;;;;;5015108;28;20186;-72
2023/12/15 12:16:01;;;;;;;8.18;6.13;;;10.70;99.90;;;;;;5015051;28;20216;-72
2023/12/15 12:18:28;;;;;;;10.27;6.72;;;10.70;99.90;;;;;;5014944;28;20273;-69
2023/12/15 12:20:59;;;;;;;8.65;6.55;;;10.80;99.90;;;;;;5014808;28;20228;-70
2023/12/15 12:23:28;;;;;;;10.23;6.55;;;10.80;99.90;;;;;;5014961;28;20190;-70
2023/12/15 12:25:57;;;;;;;8.65;6.03;;;10.80;99.90;;;;;;5013290;28;20179;-71
2023/12/15 12:28:40;;;;;;;9.77;7.03;;;10.90;99.90;;;;;;5009974;28;20194;-68
2023/12/15 12:31:06;;;;;;;10.07;6.78;;;10.90;99.90;;;;;;5014997;28;20226;-65
2023/12/15 12:33:39;;;;;;;10.40;7.72;;;10.90;99.90;;;;;;5014957;28;20178;-72
2023/12/15 12:36:06;;;;;;;11.23;7.30;;;10.90;99.90;;;;;;5014832;28;20181;-72
2023/12/15 12:38:32;;;;;;;12.20;7.65;;;10.90;99.90;;;;;;5013578;28;20265;-68
2023/12/15 12:41:03;;;;;;;11.57;7.57;;;10.90;99.90;;;;;;5014622;28;20269;-70
2023/12/15 12:43:29;;;;;;;12.80;7.55;;;10.90;99.90;;;;;;5014468;28;20202;-70
2023/12/15 12:45:55;;;;;;;11.05;7.45;;;10.90;99.90;;;;;;5010277;28;20167;-72
2023/12/15 12:48:21;;;;;;;11.18;7.15;;;11.00;99.90;;;;;;5004353;28;20277;-72
2023/12/15 12:50:46;;;;;;;11.23;7.43;;;10.90;99.90;;;;;;5014534;28;20372;-71
2023/12/15 12:53:14;;;;;;;10.60;6.97;;;10.90;99.90;;;;;;5014089;28;20190;-71
2023/12/15 12:55:40;;;;;;;11.13;6.78;;;10.90;99.90;;;;;;5014699;28;20174;-71